Time;durP1;ratioP1;P1;durP2;ratioP2;P2;SDS_P1;SDS_P2;PMS_P1;PMS_P2;Temp;Humidity;BMP_temperature;BMP_pressure;BME280_temperature;BME280_humidity;BME280_pressure;Samples;Min_cycle;Max_cycle;Signal;HPM_P1;HPM_P2
2023/04/10 00:00:09;;;;;;;18.50;13.68;;;10.80;99.90;;;;;;5066997;28;20033;-58
2023/04/10 00:02:36;;;;;;;18.55;13.95;;;10.80;99.90;;;;;;5071384;28;20522;-58
2023/04/10 00:05:02;;;;;;;21.35;14.68;;;10.80;99.90;;;;;;5073101;28;20056;-58
2023/04/10 00:07:27;;;;;;;20.55;14.25;;;10.80;99.90;;;;;;5066445;28;20056;-59
2023/04/10 00:09:53;;;;;;;19.75;14.00;;;10.80;99.90;;;;;;5071401;28;20082;-57
2023/04/10 00:12:19;;;;;;;21.95;14.77;;;10.80;99.90;;;;;;5074135;28;20375;-57
2023/04/10 00:14:45;;;;;;;20.42;14.43;;;10.80;99.90;;;;;;5073467;28;20067;-57
2023/04/10 00:17:10;;;;;;;18.60;14.25;;;10.80;99.90;;;;;;5069978;28;20060;-57
2023/04/10 00:19:36;;;;;;;20.50;13.80;;;10.80;99.90;;;;;;5070711;28;20029;-59
2023/04/10 00:22:02;;;;;;;18.20;14.18;;;10.90;99.90;;;;;;5077020;28;20036;-59
2023/04/10 00:24:28;;;;;;;19.35;14.05;;;10.80;99.90;;;;;;5072995;28;20044;-59
2023/04/10 00:26:55;;;;;;;19.02;14.00;;;10.90;99.90;;;;;;5073264;28;20041;-63
2023/04/10 00:29:21;;;;;;;19.42;13.73;;;10.90;99.90;;;;;;5053339;28;20398;-63
2023/04/10 00:31:46;;;;;;;19.20;14.43;;;10.90;99.90;;;;;;5072571;28;20036;-63
2023/04/10 00:34:12;;;;;;;17.50;13.07;;;10.90;99.90;;;;;;5071795;28;20024;-62
2023/04/10 00:36:38;;;;;;;17.17;13.60;;;10.90;99.90;;;;;;5072813;28;20040;-58
2023/04/10 00:39:04;;;;;;;18.33;13.18;;;11.00;99.90;;;;;;5072137;28;20383;-58
2023/04/10 00:41:29;;;;;;;16.60;12.60;;;11.00;99.90;;;;;;5073098;28;20482;-63
2023/04/10 00:43:56;;;;;;;16.80;13.40;;;11.00;99.90;;;;;;5073198;28;20456;-63
2023/04/10 00:46:23;;;;;;;17.95;13.10;;;11.00;99.90;;;;;;5074080;28;21078;-61
2023/04/10 00:48:51;;;;;;;18.13;13.35;;;11.00;99.90;;;;;;5072531;28;20111;-61
2023/04/10 00:51:19;;;;;;;19.27;13.63;;;11.00;99.90;;;;;;5059941;28;20028;-61
2023/04/10 00:53:52;;;;;;;20.33;14.68;;;11.00;99.90;;;;;;5083642;28;20032;-61
2023/04/10 00:56:18;;;;;;;19.88;14.05;;;11.00;99.90;;;;;;5072480;28;20032;-61
2023/04/10 00:58:44;;;;;;;22.23;14.50;;;11.00;99.90;;;;;;5072446;28;20047;-62
2023/04/10 01:01:10;;;;;;;18.08;13.63;;;10.90;99.90;;;;;;5071455;28;20031;-63
2023/04/10 01:03:38;;;;;;;21.52;14.02;;;11.00;99.90;;;;;;5072753;28;20111;-63
2023/04/10 01:06:29;;;;;;;18.83;13.57;;;11.00;99.90;;;;;;5072848;28;20117;-61
2023/04/10 01:09:13;;;;;;;21.55;14.07;;;11.00;99.90;;;;;;5070875;28;20020;-61
2023/04/10 01:11:53;;;;;;;20.40;13.70;;;10.90;99.90;;;;;;5071988;28;20447;-61
2023/04/10 01:14:32;;;;;;;25.40;14.75;;;10.90;99.90;;;;;;5069229;28;20029;-61
2023/04/10 01:17:12;;;;;;;21.52;14.55;;;11.00;99.90;;;;;;5077583;28;20718;-63
2023/04/10 01:19:46;;;;;;;23.38;15.27;;;11.00;99.90;;;;;;5072277;28;20127;-63
2023/04/10 01:22:14;;;;;;;19.98;14.15;;;11.00;99.90;;;;;;5076039;28;20106;-57
2023/04/10 01:24:57;;;;;;;24.05;14.75;;;10.90;99.90;;;;;;5072070;28;20060;-59
2023/04/10 01:27:44;;;;;;;25.40;15.65;;;10.90;99.90;;;;;;5081512;28;20028;-59
2023/04/10 01:30:15;;;;;;;22.85;15.07;;;10.90;99.90;;;;;;5059408;28;20171;-55
2023/04/10 01:32:43;;;;;;;23.88;15.25;;;10.90;99.90;;;;;;5070496;28;20025;-58
2023/04/10 01:35:10;;;;;;;21.05;14.25;;;10.90;99.90;;;;;;5072684;28;20051;-58
2023/04/10 01:37:41;;;;;;;25.73;15.95;;;10.90;99.90;;;;;;5070792;28;20033;-57
2023/04/10 01:40:11;;;;;;;24.85;15.82;;;10.90;99.90;;;;;;5072022;28;20399;-58
2023/04/10 01:42:45;;;;;;;24.33;16.30;;;10.90;99.90;;;;;;5071944;28;20108;-57
2023/04/10 01:45:17;;;;;;;21.63;15.13;;;10.80;99.90;;;;;;5066294;28;20027;-59
2023/04/10 01:47:43;;;;;;;29.00;16.00;;;10.80;99.90;;;;;;5063737;28;20486;-59
2023/04/10 01:50:10;;;;;;;27.63;16.30;;;10.80;99.90;;;;;;5071780;28;20029;-57
2023/04/10 01:52:38;;;;;;;25.20;16.45;;;10.80;99.90;;;;;;5073964;28;20103;-59
2023/04/10 01:55:06;;;;;;;29.10;17.00;;;10.80;99.90;;;;;;5077187;28;20021;-59
2023/04/10 01:57:31;;;;;;;30.25;16.10;;;10.80;99.90;;;;;;5070975;28;20033;-55
2023/04/10 01:59:57;;;;;;;30.25;16.58;;;10.80;99.90;;;;;;5062433;28;20025;-58
2023/04/10 02:02:23;;;;;;;28.55;15.60;;;10.80;99.90;;;;;;5068020;28;20532;-58
2023/04/10 02:04:51;;;;;;;29.20;16.45;;;10.80;99.90;;;;;;5070677;28;20052;-58
2023/04/10 02:07:27;;;;;;;26.50;15.55;;;10.70;99.90;;;;;;5072360;28;20059;-58
2023/04/10 02:10:16;;;;;;;29.25;16.52;;;10.70;99.90;;;;;;5071209;28;20033;-58
2023/04/10 02:12:41;;;;;;;32.22;16.60;;;10.80;99.90;;;;;;5071527;28;20028;-58
2023/04/10 02:15:08;;;;;;;30.30;15.77;;;10.80;99.90;;;;;;5069123;28;20029;-58
2023/04/10 02:17:35;;;;;;;27.70;15.18;;;10.80;99.90;;;;;;5081073;28;20040;-59
2023/04/10 02:20:03;;;;;;;24.27;15.68;;;10.80;99.90;;;;;;5070865;28;20021;-57
2023/04/10 02:22:29;;;;;;;27.35;16.13;;;10.80;99.90;;;;;;5074227;28;20055;-64
2023/04/10 02:24:56;;;;;;;28.25;16.40;;;10.80;99.90;;;;;;5069953;28;20052;-64
2023/04/10 02:27:33;;;;;;;26.45;15.25;;;10.80;99.90;;;;;;5070961;28;20036;-64
2023/04/10 02:29:59;;;;;;;24.10;14.80;;;10.80;99.90;;;;;;5065496;28;20033;-64
2023/04/10 02:32:26;;;;;;;28.77;15.52;;;10.80;99.90;;;;;;5063038;28;20047;-65
2023/04/10 02:34:52;;;;;;;24.10;14.15;;;10.80;99.90;;;;;;5069653;28;20103;-64
2023/04/10 02:37:17;;;;;;;22.75;14.52;;;10.80;99.90;;;;;;5071183;28;20123;-65
2023/04/10 02:39:43;;;;;;;19.95;12.88;;;10.80;99.90;;;;;;5071146;28;20036;-64
2023/04/10 02:42:09;;;;;;;20.08;13.52;;;10.80;99.90;;;;;;5071199;28;20107;-64
2023/04/10 02:44:34;;;;;;;23.67;14.68;;;10.70;99.90;;;;;;5066209;28;20029;-64
2023/04/10 02:47:00;;;;;;;18.67;12.63;;;10.70;99.90;;;;;;5086037;28;20024;-64
2023/04/10 02:49:26;;;;;;;20.05;12.00;;;10.70;99.90;;;;;;5078191;28;20059;-65
2023/04/10 02:51:51;;;;;;;20.73;12.13;;;10.70;99.90;;;;;;5077880;28;20067;-64
2023/04/10 02:54:17;;;;;;;18.30;11.40;;;10.70;99.90;;;;;;5086892;28;20021;-65
2023/04/10 02:56:43;;;;;;;19.75;13.52;;;10.70;99.90;;;;;;5077530;28;20028;-64
2023/04/10 02:59:08;;;;;;;20.48;11.65;;;10.70;99.90;;;;;;5077364;28;20348;-64
2023/04/10 03:01:35;;;;;;;16.75;11.43;;;10.70;99.90;;;;;;5073867;28;20048;-64
2023/04/10 03:04:02;;;;;;;17.65;11.07;;;10.70;99.90;;;;;;5075791;28;20024;-64
2023/04/10 03:06:28;;;;;;;20.30;12.48;;;10.80;99.90;;;;;;5078156;28;20036;-64
2023/04/10 03:08:54;;;;;;;14.55;11.52;;;10.80;99.90;;;;;;5077466;28;20577;-64
2023/04/10 03:11:19;;;;;;;18.83;12.13;;;10.80;99.90;;;;;;5077641;28;20520;-62
2023/04/10 03:13:46;;;;;;;20.60;12.32;;;10.80;99.90;;;;;;5081845;28;20069;-62
2023/04/10 03:16:11;;;;;;;16.95;12.43;;;10.70;99.90;;;;;;5092677;28;20474;-61
2023/04/10 03:18:37;;;;;;;19.98;12.90;;;10.80;99.90;;;;;;5078291;28;20025;-62
2023/04/10 03:21:03;;;;;;;18.92;12.55;;;10.80;99.90;;;;;;5080182;28;20040;-62
2023/04/10 03:23:29;;;;;;;18.75;13.20;;;10.80;99.90;;;;;;5077445;28;20398;-61
2023/04/10 03:25:54;;;;;;;20.05;12.15;;;10.80;99.90;;;;;;5077394;28;20391;-58
2023/04/10 03:28:21;;;;;;;20.88;12.50;;;10.80;99.90;;;;;;5077470;28;20033;-57
2023/04/10 03:30:47;;;;;;;19.15;12.73;;;10.80;99.90;;;;;;5076420;28;20055;-59
2023/04/10 03:33:13;;;;;;;22.50;13.20;;;10.70;99.90;;;;;;5074214;28;20032;-62
2023/04/10 03:35:40;;;;;;;18.70;13.90;;;10.70;99.90;;;;;;5082320;28;20668;-58
2023/04/10 03:38:05;;;;;;;21.52;13.52;;;10.70;99.90;;;;;;5077487;28;20081;-57
2023/04/10 03:40:33;;;;;;;21.55;13.32;;;10.70;99.90;;;;;;5077667;28;20453;-60
2023/04/10 03:43:01;;;;;;;20.40;12.70;;;10.70;99.90;;;;;;5076670;28;20036;-58
2023/04/10 03:45:27;;;;;;;21.00;13.07;;;10.70;99.90;;;;;;5077152;28;20032;-62
2023/04/10 03:47:52;;;;;;;17.45;11.88;;;10.60;99.90;;;;;;5087990;28;20016;-57
2023/04/10 03:50:18;;;;;;;16.50;10.40;;;10.60;99.90;;;;;;5075854;28;20175;-57
2023/04/10 03:52:44;;;;;;;14.50;10.30;;;10.60;99.90;;;;;;5088744;28;20034;-60
2023/04/10 03:55:10;;;;;;;11.45;8.80;;;10.50;99.90;;;;;;5083699;28;20486;-60
2023/04/10 03:57:35;;;;;;;12.48;9.15;;;10.50;99.90;;;;;;5073062;28;20463;-59
2023/04/10 04:00:02;;;;;;;16.92;10.57;;;10.50;99.90;;;;;;5071799;28;20485;-57
2023/04/10 04:02:28;;;;;;;18.33;12.25;;;10.50;99.90;;;;;;5073105;28;20036;-65
2023/04/10 04:04:54;;;;;;;21.45;13.70;;;10.50;99.90;;;;;;5061549;28;20036;-65
2023/04/10 04:07:19;;;;;;;22.13;13.05;;;10.60;99.90;;;;;;5073312;28;20029;-64
2023/04/10 04:09:45;;;;;;;19.65;13.27;;;10.60;99.90;;;;;;5073712;28;20021;-64
2023/04/10 04:12:11;;;;;;;19.55;12.68;;;10.60;99.90;;;;;;5083825;28;20451;-63
2023/04/10 04:14:37;;;;;;;19.83;12.95;;;10.60;99.90;;;;;;5074172;28;20065;-63
2023/04/10 04:17:02;;;;;;;17.00;12.48;;;10.60;99.90;;;;;;5081242;28;20044;-65
2023/04/10 04:19:28;;;;;;;16.08;11.48;;;10.60;99.90;;;;;;5073417;28;20028;-64
2023/04/10 04:21:54;;;;;;;20.42;11.90;;;10.60;99.90;;;;;;5071914;28;20025;-63
2023/04/10 04:24:20;;;;;;;17.42;11.93;;;10.60;99.90;;;;;;5072935;28;20036;-64
2023/04/10 04:26:46;;;;;;;15.95;11.15;;;10.60;99.90;;;;;;5061234;28;20036;-64
2023/04/10 04:29:11;;;;;;;17.90;12.55;;;10.60;99.90;;;;;;5066183;28;20546;-63
2023/04/10 04:31:37;;;;;;;19.00;11.93;;;10.60;99.90;;;;;;5071441;28;20463;-64
2023/04/10 04:34:03;;;;;;;17.55;12.55;;;10.50;99.90;;;;;;5071460;28;20036;-64
2023/04/10 04:36:28;;;;;;;16.75;12.02;;;10.60;99.90;;;;;;5073275;28;20032;-63
2023/04/10 04:38:54;;;;;;;15.77;10.80;;;10.50;99.90;;;;;;5073218;28;20024;-63
2023/04/10 04:41:20;;;;;;;15.50;10.63;;;10.50;99.90;;;;;;5076632;28;20028;-63
2023/04/10 04:43:48;;;;;;;16.55;11.43;;;10.50;99.90;;;;;;5077476;28;20056;-63
2023/04/10 04:46:14;;;;;;;17.65;11.32;;;10.50;99.90;;;;;;5076949;28;20074;-63
2023/04/10 04:48:41;;;;;;;16.00;11.18;;;10.50;99.90;;;;;;5074008;28;20680;-64
2023/04/10 04:51:06;;;;;;;17.65;12.07;;;10.50;99.90;;;;;;5073803;28;20039;-64
2023/04/10 04:53:32;;;;;;;18.35;11.77;;;10.50;99.90;;;;;;5078115;28;20032;-63
2023/04/10 04:55:58;;;;;;;16.83;11.82;;;10.50;99.90;;;;;;5072703;28;20025;-64
2023/04/10 04:58:23;;;;;;;18.02;11.57;;;10.50;99.90;;;;;;5071964;28;20056;-63
2023/04/10 05:00:51;;;;;;;18.58;12.10;;;10.40;99.90;;;;;;5069361;28;20119;-63
2023/04/10 05:03:17;;;;;;;20.70;12.70;;;10.50;99.90;;;;;;5071618;28;20064;-64
2023/04/10 05:05:43;;;;;;;20.55;13.48;;;10.40;99.90;;;;;;5067350;28;20519;-64
2023/04/10 05:08:09;;;;;;;18.48;12.07;;;10.40;99.90;;;;;;5072217;28;20031;-63
2023/04/10 05:10:35;;;;;;;18.65;12.43;;;10.50;99.90;;;;;;5067314;28;20036;-64
2023/04/10 05:13:01;;;;;;;18.15;12.30;;;10.50;99.90;;;;;;5078003;28;20033;-64
2023/04/10 05:15:27;;;;;;;17.13;11.77;;;10.50;99.90;;;;;;5074204;28;20086;-65
2023/04/10 05:17:53;;;;;;;22.60;13.48;;;10.50;99.90;;;;;;5079703;28;20028;-64
2023/04/10 05:20:20;;;;;;;21.25;13.88;;;10.50;99.90;;;;;;5071164;28;20028;-63
2023/04/10 05:22:46;;;;;;;21.58;13.60;;;10.50;99.90;;;;;;5075207;28;20387;-65
2023/04/10 05:25:12;;;;;;;24.23;14.98;;;10.50;99.90;;;;;;5071569;28;20072;-66
2023/04/10 05:27:37;;;;;;;24.55;14.85;;;10.50;99.90;;;;;;5060089;28;20060;-60
2023/04/10 05:30:03;;;;;;;24.02;14.93;;;10.50;99.90;;;;;;5071229;28;20089;-58
2023/04/10 05:32:29;;;;;;;23.33;15.45;;;10.60;99.90;;;;;;5063204;28;20057;-62
2023/04/10 05:34:55;;;;;;;25.48;15.75;;;10.60;99.90;;;;;;5068498;28;20036;-62
2023/04/10 05:37:20;;;;;;;22.45;15.15;;;10.60;99.90;;;;;;5056870;28;20111;-62
2023/04/10 05:39:46;;;;;;;23.70;15.05;;;10.60;99.90;;;;;;5064036;28;20035;-63
2023/04/10 05:42:12;;;;;;;27.58;15.10;;;10.60;99.90;;;;;;5065915;28;20036;-63
2023/04/10 05:44:38;;;;;;;20.15;14.10;;;10.60;99.90;;;;;;5057060;28;20039;-63
2023/04/10 05:47:04;;;;;;;23.88;16.02;;;10.60;99.90;;;;;;5056085;28;20028;-63
2023/04/10 05:49:30;;;;;;;24.92;15.52;;;10.60;99.90;;;;;;5066235;28;20040;-63
2023/04/10 05:51:56;;;;;;;23.73;15.77;;;10.60;99.90;;;;;;5069574;28;20110;-65
2023/04/10 05:54:22;;;;;;;25.70;15.90;;;10.60;99.90;;;;;;5060690;28;20029;-64
2023/04/10 05:56:47;;;;;;;24.50;16.00;;;10.60;99.90;;;;;;5063574;28;20039;-63
2023/04/10 05:59:13;;;;;;;23.90;14.98;;;10.60;99.90;;;;;;5060408;28;20036;-65
2023/04/10 06:01:39;;;;;;;23.90;15.73;;;10.60;99.90;;;;;;5056714;28;20036;-65
2023/04/10 06:04:05;;;;;;;23.77;15.20;;;10.70;99.90;;;;;;5066896;28;20067;-63
2023/04/10 06:06:32;;;;;;;24.13;14.82;;;10.70;99.90;;;;;;5071605;28;20064;-63
2023/04/10 06:08:58;;;;;;;24.63;15.07;;;10.70;99.90;;;;;;5066712;28;20031;-62
2023/04/10 06:11:23;;;;;;;23.65;15.00;;;10.70;99.90;;;;;;5062863;28;20032;-63
2023/04/10 06:13:49;;;;;;;25.80;15.50;;;10.80;99.90;;;;;;5060062;28;20033;-62
2023/04/10 06:16:15;;;;;;;24.60;16.33;;;10.80;99.90;;;;;;5048881;28;20534;-61
2023/04/10 06:18:41;;;;;;;22.23;14.32;;;10.80;99.90;;;;;;5051777;28;20066;-64
2023/04/10 06:21:07;;;;;;;25.25;15.32;;;10.80;99.90;;;;;;5056393;28;21938;-61
2023/04/10 06:23:33;;;;;;;25.27;15.27;;;10.80;99.90;;;;;;5059638;28;20033;-61
2023/04/10 06:26:00;;;;;;;24.73;16.58;;;10.90;99.90;;;;;;5050099;28;20049;-62
2023/04/10 06:28:25;;;;;;;24.45;15.27;;;10.90;99.90;;;;;;5051589;28;20395;-61
2023/04/10 06:30:51;;;;;;;26.00;15.63;;;10.90;99.90;;;;;;5045963;28;20025;-63
2023/04/10 06:33:17;;;;;;;23.95;15.60;;;10.90;99.90;;;;;;5036570;28;20074;-61
2023/04/10 06:35:43;;;;;;;25.00;14.93;;;10.90;99.90;;;;;;5052992;28;20406;-62
2023/04/10 06:38:09;;;;;;;22.75;14.77;;;11.00;99.90;;;;;;5053020;28;20032;-62
2023/04/10 06:40:34;;;;;;;24.70;15.55;;;11.00;99.90;;;;;;5051696;28;20036;-62
2023/04/10 06:43:00;;;;;;;22.30;14.38;;;11.00;99.90;;;;;;5039560;28;20128;-62
2023/04/10 06:45:26;;;;;;;23.08;13.43;;;11.00;99.90;;;;;;5052588;28;21478;-62
2023/04/10 06:47:52;;;;;;;22.35;14.52;;;11.10;99.90;;;;;;5058275;28;20021;-62
2023/04/10 06:50:18;;;;;;;22.45;15.02;;;11.00;99.90;;;;;;5059091;28;20056;-61
2023/04/10 06:52:44;;;;;;;23.17;14.38;;;11.00;99.90;;;;;;5065941;28;20159;-61
2023/04/10 06:55:11;;;;;;;21.02;14.45;;;11.10;99.90;;;;;;5050145;28;20036;-64
2023/04/10 06:57:38;;;;;;;23.10;14.63;;;11.10;99.90;;;;;;5055390;28;20033;-62
2023/04/10 07:00:05;;;;;;;19.23;13.57;;;11.10;99.90;;;;;;5048097;28;20514;-62
2023/04/10 07:02:30;;;;;;;19.75;13.90;;;11.10;99.90;;;;;;5037598;28;20029;-63
2023/04/10 07:04:56;;;;;;;22.25;13.88;;;11.10;99.90;;;;;;5050585;28;20502;-62
2023/04/10 07:07:22;;;;;;;21.38;14.30;;;11.20;99.90;;;;;;5047107;28;20392;-61
2023/04/10 07:09:48;;;;;;;20.20;13.43;;;11.20;99.90;;;;;;5039280;28;20033;-64
2023/04/10 07:12:14;;;;;;;22.45;14.95;;;11.20;99.90;;;;;;5039105;28;20044;-63
2023/04/10 07:14:40;;;;;;;20.80;14.18;;;11.20;99.90;;;;;;5034544;28;20076;-61
2023/04/10 07:17:05;;;;;;;24.00;14.80;;;11.30;99.90;;;;;;5039917;28;20152;-62
2023/04/10 07:19:31;;;;;;;23.10;14.40;;;11.40;99.90;;;;;;5045430;28;20092;-62
2023/04/10 07:21:58;;;;;;;23.45;15.90;;;11.40;99.90;;;;;;5043125;28;20538;-62
2023/04/10 07:24:24;;;;;;;23.42;14.98;;;11.40;99.90;;;;;;5049501;28;21851;-66
2023/04/10 07:26:50;;;;;;;21.70;15.05;;;11.50;99.90;;;;;;5037920;28;20067;-63
2023/04/10 07:29:16;;;;;;;23.77;13.80;;;11.50;99.90;;;;;;5045526;28;20024;-65
2023/04/10 07:31:41;;;;;;;22.25;14.57;;;11.40;99.90;;;;;;5041039;28;20032;-66
2023/04/10 07:34:07;;;;;;;20.92;14.13;;;11.50;99.90;;;;;;5022949;28;20547;-62
2023/04/10 07:36:33;;;;;;;24.05;14.10;;;11.50;99.90;;;;;;5039485;28;20036;-61
2023/04/10 07:38:59;;;;;;;23.38;14.77;;;11.50;99.90;;;;;;5037922;28;20037;-62
2023/04/10 07:41:24;;;;;;;19.50;14.20;;;11.50;99.90;;;;;;5038250;28;20479;-63
2023/04/10 07:43:50;;;;;;;23.85;15.13;;;11.50;99.90;;;;;;5024765;28;20180;-63
2023/04/10 07:46:16;;;;;;;19.10;14.07;;;11.60;99.90;;;;;;5048471;28;20143;-61
2023/04/10 07:48:43;;;;;;;20.15;13.60;;;11.60;99.90;;;;;;5055004;28;20032;-66
2023/04/10 07:51:09;;;;;;;20.45;14.75;;;11.70;99.90;;;;;;5049845;28;20024;-63
2023/04/10 07:53:35;;;;;;;20.02;13.40;;;11.80;99.90;;;;;;5054283;28;20132;-65
2023/04/10 07:56:01;;;;;;;20.42;13.63;;;11.80;99.90;;;;;;5057752;28;20051;-63
2023/04/10 07:58:27;;;;;;;20.00;13.13;;;11.90;99.90;;;;;;5049221;28;20479;-65
2023/04/10 08:00:53;;;;;;;21.13;13.52;;;12.00;99.90;;;;;;5036235;28;20036;-62
2023/04/10 08:03:18;;;;;;;18.05;12.93;;;12.20;99.90;;;;;;5042895;28;20025;-62
2023/04/10 08:05:44;;;;;;;19.88;13.85;;;12.40;99.90;;;;;;5040314;28;20032;-61
2023/04/10 08:08:10;;;;;;;22.00;13.73;;;12.60;99.90;;;;;;5049809;28;20033;-62
2023/04/10 08:10:37;;;;;;;19.98;13.65;;;12.70;99.90;;;;;;5029011;28;20184;-63
2023/04/10 08:13:04;;;;;;;22.58;14.50;;;12.80;99.90;;;;;;5049702;28;20036;-63
2023/04/10 08:15:29;;;;;;;20.88;13.70;;;12.90;99.80;;;;;;5048749;28;20791;-62
2023/04/10 08:17:55;;;;;;;17.48;12.70;;;12.90;99.10;;;;;;5039048;28;20053;-62
2023/04/10 08:20:22;;;;;;;17.15;12.93;;;12.90;98.70;;;;;;5050782;28;20036;-64
2023/04/10 08:22:48;;;;;;;19.02;14.02;;;12.90;98.80;;;;;;5043347;28;20037;-64
2023/04/10 08:25:14;;;;;;;20.95;14.15;;;12.90;98.40;;;;;;5044911;28;20056;-64
2023/04/10 08:27:40;;;;;;;18.98;13.48;;;12.90;98.40;;;;;;5050162;28;20037;-67
2023/04/10 08:30:07;;;;;;;19.42;13.57;;;12.90;98.10;;;;;;5040054;28;20033;-61
2023/04/10 08:32:35;;;;;;;19.00;13.10;;;12.90;98.20;;;;;;5046954;28;20115;-62
2023/04/10 08:35:00;;;;;;;17.08;12.93;;;12.90;98.10;;;;;;5040175;28;20038;-64
2023/04/10 08:37:26;;;;;;;17.75;12.85;;;12.90;97.70;;;;;;5034686;28;20036;-65
2023/04/10 08:39:52;;;;;;;17.40;12.80;;;12.90;97.50;;;;;;5037457;28;20032;-60
2023/04/10 08:42:18;;;;;;;19.25;13.73;;;12.90;97.80;;;;;;5035619;28;20036;-61
2023/04/10 08:44:47;;;;;;;20.17;13.43;;;12.90;97.50;;;;;;5039167;28;20041;-62
2023/04/10 08:47:14;;;;;;;16.77;11.82;;;12.90;97.30;;;;;;5040450;28;20039;-63
2023/04/10 08:49:50;;;;;;;17.10;12.52;;;13.00;97.30;;;;;;5050945;28;20805;-64
2023/04/10 08:52:21;;;;;;;18.25;13.82;;;13.00;96.80;;;;;;5047295;28;20024;-63
2023/04/10 08:54:50;;;;;;;17.35;12.77;;;13.00;96.70;;;;;;5048234;28;20036;-65
2023/04/10 08:57:18;;;;;;;18.88;13.35;;;13.00;96.70;;;;;;5041142;28;20033;-65
2023/04/10 08:59:44;;;;;;;16.13;12.05;;;13.00;96.60;;;;;;5048403;28;20032;-63
2023/04/10 09:02:10;;;;;;;18.70;13.18;;;13.10;96.40;;;;;;5052822;28;20416;-63
2023/04/10 09:04:35;;;;;;;18.17;13.88;;;13.10;96.20;;;;;;5054755;28;20707;-63
2023/04/10 09:07:01;;;;;;;19.00;13.25;;;13.10;95.70;;;;;;5047010;28;20383;-62
2023/04/10 09:09:31;;;;;;;16.67;12.18;;;13.10;95.60;;;;;;5047333;28;20072;-65
2023/04/10 09:12:02;;;;;;;18.17;13.18;;;13.10;95.80;;;;;;5031369;28;20036;-65
2023/04/10 09:14:31;;;;;;;;;;;13.10;95.70;;;;;;5048381;28;20060;-61
2023/04/10 09:17:16;;;;;;;15.98;12.13;;;13.00;95.30;;;;;;5041535;28;19924;-64
2023/04/10 09:19:46;;;;;;;16.77;12.75;;;13.10;95.50;;;;;;5040444;28;20040;-62
2023/04/10 09:22:13;;;;;;;16.10;11.98;;;13.00;95.50;;;;;;5056514;28;20143;-63
2023/04/10 09:24:41;;;;;;;16.10;11.38;;;13.00;95.30;;;;;;5049152;28;21848;-65
2023/04/10 09:27:08;;;;;;;16.33;11.18;;;13.00;95.10;;;;;;5045291;28;20882;-59
2023/04/10 09:29:47;;;;;;;13.75;10.98;;;13.00;94.90;;;;;;5036220;28;20071;-62
2023/04/10 09:32:33;;;;;;;14.45;11.43;;;13.00;94.60;;;;;;5034363;28;20033;-62
2023/04/10 09:34:59;;;;;;;15.43;11.75;;;12.90;94.70;;;;;;5035474;28;20036;-63
2023/04/10 09:37:31;;;;;;;17.13;11.70;;;12.90;94.70;;;;;;5045241;28;20098;-64
2023/04/10 09:39:57;;;;;;;15.02;11.95;;;12.90;94.50;;;;;;5049312;28;20107;-64
2023/04/10 09:42:36;;;;;;;17.45;12.60;;;12.90;94.50;;;;;;5045999;28;20402;-63
2023/04/10 09:45:03;;;;;;;15.02;11.50;;;12.90;94.40;;;;;;5047875;28;20035;-60
2023/04/10 09:47:29;;;;;;;18.80;12.73;;;12.90;94.40;;;;;;5040715;28;20036;-60
2023/04/10 09:49:59;;;;;;;14.38;11.40;;;12.90;94.30;;;;;;5031850;28;21123;-61
2023/04/10 09:52:30;;;;;;;17.13;13.02;;;12.90;94.30;;;;;;5034081;28;20747;-62
2023/04/10 09:55:08;;;;;;;18.30;13.88;;;12.80;94.30;;;;;;5045463;28;20158;-63
2023/04/10 09:57:35;;;;;;;18.45;14.20;;;12.80;94.10;;;;;;5040258;28;20039;-62
2023/04/10 10:00:04;;;;;;;19.95;15.40;;;12.80;94.20;;;;;;5031755;28;20455;-61
2023/04/10 10:02:32;;;;;;;20.75;14.30;;;12.80;94.20;;;;;;5037182;28;20056;-60
2023/04/10 10:05:01;;;;;;;21.17;15.50;;;12.70;94.20;;;;;;5033313;28;20133;-62
2023/04/10 10:07:28;;;;;;;19.25;14.07;;;12.70;94.10;;;;;;5037422;28;20029;-63
2023/04/10 10:09:54;;;;;;;16.42;12.95;;;12.70;94.20;;;;;;5046468;28;20029;-62
2023/04/10 10:12:39;;;;;;;16.02;12.30;;;12.70;94.20;;;;;;5044111;28;20768;-61
2023/04/10 10:15:24;;;;;;;12.85;10.93;;;12.70;93.90;;;;;;5037845;28;20037;-60
2023/04/10 10:18:15;;;;;;;15.05;11.93;;;12.70;94.00;;;;;;5044765;28;20040;-62
2023/04/10 10:20:43;;;;;;;13.52;10.15;;;12.70;93.80;;;;;;5047819;28;20114;-63
2023/04/10 10:23:10;;;;;;;14.02;9.90;;;12.70;93.30;;;;;;5044327;28;20119;-64
2023/04/10 10:25:36;;;;;;;12.13;9.82;;;12.70;92.90;;;;;;5050598;28;20134;-63
2023/04/10 10:28:03;;;;;;;13.52;10.27;;;12.80;92.70;;;;;;5048107;28;20549;-61
2023/04/10 10:30:33;;;;;;;14.13;10.70;;;12.80;92.90;;;;;;5045875;28;20104;-61
2023/04/10 10:32:59;;;;;;;13.73;10.40;;;12.80;92.60;;;;;;5048518;28;20032;-63
2023/04/10 10:35:30;;;;;;;13.25;10.73;;;12.80;92.50;;;;;;5049655;28;20041;-64
2023/04/10 10:37:59;;;;;;;13.38;10.55;;;12.80;92.10;;;;;;5050489;28;20118;-63
2023/04/10 10:40:30;;;;;;;11.85;8.65;;;12.80;92.10;;;;;;5047968;28;20498;-62
2023/04/10 10:43:31;;;;;;;13.70;9.90;;;12.80;91.70;;;;;;5041953;28;20032;-63
2023/04/10 10:46:08;;;;;;;13.25;10.52;;;12.70;91.40;;;;;;5049545;28;20028;-63
2023/04/10 10:48:33;;;;;;;13.23;10.65;;;12.70;91.50;;;;;;5057939;28;20097;-64
2023/04/10 10:51:00;;;;;;;15.45;10.77;;;12.70;91.60;;;;;;5039015;28;20555;-65
2023/04/10 10:53:43;;;;;;;13.63;10.57;;;12.70;91.70;;;;;;5041928;28;20032;-63
2023/04/10 10:56:17;;;;;;;12.68;10.32;;;12.70;91.60;;;;;;5046229;28;20037;-65
2023/04/10 10:58:51;;;;;;;12.38;10.00;;;12.70;91.70;;;;;;5047761;28;20582;-63
2023/04/10 11:01:18;;;;;;;11.95;10.27;;;12.80;91.60;;;;;;5042369;28;20541;-63
2023/04/10 11:03:46;;;;;;;13.05;10.50;;;12.80;91.50;;;;;;5043768;28;20025;-63
2023/04/10 11:06:18;;;;;;;12.48;10.07;;;12.80;91.20;;;;;;5040721;28;20042;-61
2023/04/10 11:08:47;;;;;;;13.18;10.27;;;12.90;90.90;;;;;;5048242;28;20040;-63
2023/04/10 11:11:20;;;;;;;14.88;10.30;;;12.90;90.60;;;;;;5044917;28;20028;-61
2023/04/10 11:13:49;;;;;;;9.48;8.10;;;12.90;90.50;;;;;;5045341;28;22445;-64
2023/04/10 11:16:14;;;;;;;10.88;8.40;;;13.00;90.40;;;;;;5048324;28;20451;-62
2023/04/10 11:18:49;;;;;;;9.80;8.80;;;13.00;90.00;;;;;;5045628;28;20090;-63
2023/04/10 11:21:15;;;;;;;10.93;9.02;;;13.10;89.80;;;;;;5037240;28;20135;-60
2023/04/10 11:23:51;;;;;;;11.10;8.73;;;13.10;89.60;;;;;;5047349;28;20032;-63
2023/04/10 11:26:32;;;;;;;11.10;8.45;;;13.20;89.00;;;;;;5049865;28;20056;-63
2023/04/10 11:28:58;;;;;;;9.77;8.25;;;13.20;88.40;;;;;;5049000;28;20655;-63
2023/04/10 11:31:25;;;;;;;9.18;7.55;;;13.20;87.80;;;;;;5057735;28;20253;-62
2023/04/10 11:33:57;;;;;;;9.65;7.93;;;13.30;87.80;;;;;;5041974;28;21178;-62
2023/04/10 11:36:23;;;;;;;10.80;8.02;;;13.30;87.50;;;;;;5042811;28;20503;-63
2023/04/10 11:39:08;;;;;;;9.60;8.27;;;13.30;87.30;;;;;;5052467;28;20032;-64
2023/04/10 11:41:36;;;;;;;10.45;7.45;;;13.40;86.80;;;;;;5050938;28;20093;-62
2023/04/10 11:44:06;;;;;;;9.57;7.88;;;13.40;86.60;;;;;;5042657;28;20036;-62
2023/04/10 11:46:39;;;;;;;9.00;6.75;;;13.50;86.40;;;;;;5048596;28;20550;-63
2023/04/10 11:49:08;;;;;;;9.98;6.90;;;13.50;85.20;;;;;;5036135;28;20051;-65
2023/04/10 11:51:34;;;;;;;7.53;6.53;;;13.50;85.00;;;;;;5046009;28;20446;-63
2023/04/10 11:54:10;;;;;;;9.82;7.15;;;13.60;84.60;;;;;;5047060;28;20028;-63
2023/04/10 11:56:38;;;;;;;9.02;7.20;;;13.60;84.20;;;;;;5054449;28;21246;-62
2023/04/10 11:59:06;;;;;;;10.15;6.97;;;13.70;83.60;;;;;;5044266;28;20054;-63
2023/04/10 12:01:33;;;;;;;7.20;6.50;;;13.70;83.00;;;;;;5048465;28;20043;-63
2023/04/10 12:04:00;;;;;;;8.65;6.97;;;13.70;83.00;;;;;;5041646;28;20024;-63
2023/04/10 12:06:26;;;;;;;8.30;6.80;;;13.70;82.50;;;;;;5047572;28;20047;-63
2023/04/10 12:08:52;;;;;;;8.88;6.70;;;13.70;83.00;;;;;;5043275;28;20037;-65
2023/04/10 12:11:24;;;;;;;9.05;6.60;;;13.80;81.90;;;;;;5045522;28;20025;-63
2023/04/10 12:13:54;;;;;;;7.38;6.10;;;13.80;81.70;;;;;;5049275;28;20060;-63
2023/04/10 12:16:20;;;;;;;7.72;6.43;;;13.80;81.50;;;;;;5047962;28;20037;-65
2023/04/10 12:18:47;;;;;;;8.25;6.18;;;13.80;81.50;;;;;;5048885;28;20090;-61
2023/04/10 12:21:13;;;;;;;7.53;6.18;;;13.90;81.50;;;;;;5049640;28;20131;-64
2023/04/10 12:23:39;;;;;;;8.25;7.15;;;13.90;81.10;;;;;;5049903;28;20028;-64
2023/04/10 12:26:13;;;;;;;8.93;6.32;;;13.90;80.90;;;;;;5042517;28;20057;-62
2023/04/10 12:28:41;;;;;;;8.63;6.57;;;13.90;80.70;;;;;;5042041;28;21105;-61
2023/04/10 12:31:08;;;;;;;7.13;5.55;;;13.90;80.50;;;;;;5044624;28;20123;-65